createdAt,value
2017-03-11T00:00:55.951Z,21.67
2017-03-11T00:01:55.539Z,21.64
2017-03-11T00:02:56.003Z,21.64
2017-03-11T00:03:55.897Z,21.68
2017-03-11T00:04:55.962Z,21.64
2017-03-11T00:05:55.916Z,21.61
2017-03-11T00:06:55.933Z,21.49
2017-03-11T00:07:56.019Z,21.64
2017-03-11T00:08:55.921Z,21.62
2017-03-11T00:09:55.976Z,21.62
2017-03-11T00:10:56.002Z,21.64
2017-03-11T00:11:55.956Z,21.62
2017-03-11T00:12:55.984Z,21.59
2017-03-11T00:13:55.753Z,21.59
2017-03-11T00:14:55.605Z,21.59
2017-03-11T00:15:56.007Z,21.62
2017-03-11T00:16:56.058Z,21.62
2017-03-11T00:17:55.283Z,21.62
2017-03-11T00:18:57.469Z,21.69
2017-03-11T00:19:56.083Z,21.64
2017-03-11T00:20:55.980Z,21.61
2017-03-11T00:21:56.192Z,21.69
2017-03-11T00:22:56.093Z,21.59
2017-03-11T00:23:56.353Z,21.52
2017-03-11T00:24:56.049Z,21.54
2017-03-11T00:25:56.052Z,21.53
2017-03-11T00:26:55.611Z,21.58
2017-03-11T00:27:56.016Z,21.54
2017-03-11T00:28:56.103Z,21.62
2017-03-11T00:29:56.028Z,21.58
2017-03-11T00:30:56.088Z,21.58
2017-03-11T00:31:55.244Z,21.54
2017-03-11T00:32:55.350Z,21.53
2017-03-11T00:33:56.141Z,21.53
2017-03-11T00:34:56.107Z,21.56
2017-03-11T00:35:56.109Z,21.53
2017-03-11T00:36:56.054Z,21.52
2017-03-11T00:37:55.709Z,21.59
2017-03-11T00:38:56.184Z,21.58
2017-03-11T00:39:56.141Z,21.53
2017-03-11T00:40:56.079Z,21.54
2017-03-11T00:41:56.133Z,21.65
2017-03-11T00:42:56.212Z,21.58
2017-03-11T00:43:56.109Z,21.59
2017-03-11T00:44:55.804Z,21.53
2017-03-11T00:45:56.101Z,21.5
2017-03-11T00:46:55.813Z,21.65
2017-03-11T00:47:56.177Z,21.52
2017-03-11T00:48:56.214Z,21.58
2017-03-11T00:49:55.780Z,21.56
2017-03-11T00:50:56.137Z,21.56
2017-03-11T00:51:56.142Z,21.62
2017-03-11T00:52:56.195Z,21.62
2017-03-11T00:53:56.200Z,21.62
2017-03-11T00:54:56.195Z,21.62
2017-03-11T00:55:56.148Z,21.61
2017-03-11T00:56:55.759Z,21.62
2017-03-11T00:57:56.159Z,21.53
2017-03-11T00:58:55.766Z,21.56
2017-03-11T00:59:56.242Z,21.61
2017-03-11T01:00:56.265Z,21.65
2017-03-11T01:01:56.176Z,21.52
2017-03-11T01:02:55.849Z,21.61
2017-03-11T01:03:56.235Z,21.52
2017-03-11T01:04:56.190Z,21.53
2017-03-11T01:05:56.316Z,21.56
2017-03-11T01:06:56.213Z,21.46
2017-03-11T01:07:56.252Z,21.47
2017-03-11T01:08:56.260Z,21.25
2017-03-11T01:09:56.266Z,21.24
2017-03-11T01:10:55.877Z,21.31
2017-03-11T01:11:56.215Z,21.21
2017-03-11T01:12:56.289Z,21.37
2017-03-11T01:13:56.373Z,21.5
2017-03-11T01:14:55.883Z,21.52
2017-03-11T01:15:55.850Z,21.64
2017-03-11T01:16:56.428Z,21.53
2017-03-11T01:17:55.845Z,21.5
2017-03-11T01:18:56.356Z,21.42
2017-03-11T01:19:56.259Z,21.04
2017-03-11T01:20:56.370Z,21.21
2017-03-11T01:21:56.306Z,21.37
2017-03-11T01:22:56.269Z,21.54
2017-03-11T01:23:56.317Z,21.49
2017-03-11T01:24:56.367Z,21.5
2017-03-11T01:25:56.282Z,21.42
2017-03-11T01:26:55.884Z,21.56
2017-03-11T01:27:56.331Z,21.53
2017-03-11T01:28:56.299Z,21.58
2017-03-11T01:29:56.303Z,21.53
2017-03-11T01:30:55.998Z,21.44
2017-03-11T01:31:56.304Z,21.35
2017-03-11T01:32:56.398Z,21.43
2017-03-11T01:33:56.321Z,21.5
2017-03-11T01:34:56.410Z,21.52
2017-03-11T01:35:56.429Z,21.4
2017-03-11T01:36:55.977Z,21.53
2017-03-11T01:37:56.379Z,21.53
2017-03-11T01:38:56.398Z,21.47
2017-03-11T01:39:56.434Z,21.42
2017-03-11T01:40:55.956Z,21.4
2017-03-11T01:41:56.389Z,21.32
2017-03-11T01:42:56.348Z,21.42
2017-03-11T01:43:56.457Z,21.46
2017-03-11T01:44:56.058Z,21.38
2017-03-11T01:45:56.437Z,21.4
2017-03-11T01:46:56.036Z,21.43
2017-03-11T01:47:56.430Z,21.29
2017-03-11T01:48:56.367Z,21.27
2017-03-11T01:49:56.421Z,21.44
2017-03-11T01:50:56.036Z,21.44
2017-03-11T01:51:56.047Z,21.34
2017-03-11T01:52:56.446Z,21.19
2017-03-11T01:53:56.066Z,21.32
2017-03-11T01:54:56.003Z,21.35
2017-03-11T01:55:56.058Z,21.24
2017-03-11T01:56:56.064Z,21.35
2017-03-11T01:57:56.419Z,21.34
2017-03-11T01:58:56.072Z,21.27
2017-03-11T01:59:56.473Z,21.27
2017-03-11T02:00:56.501Z,21.35
2017-03-11T02:01:56.488Z,21.31
2017-03-11T02:02:56.441Z,21.28
2017-03-11T02:03:56.492Z,21.31
2017-03-11T02:04:56.096Z,21.29
2017-03-11T02:05:56.501Z,21.31
2017-03-11T02:06:56.152Z,21.17
2017-03-11T02:07:56.463Z,21.24
2017-03-11T02:08:56.469Z,21.27
2017-03-11T02:09:56.519Z,21.24
2017-03-11T02:10:56.573Z,21.21
2017-03-11T02:11:56.524Z,21.24
2017-03-11T02:12:56.490Z,21.17
2017-03-11T02:13:56.192Z,21.24
2017-03-11T02:14:56.499Z,21.19
2017-03-11T02:15:56.149Z,21.22
2017-03-11T02:16:56.208Z,21.19
2017-03-11T02:17:56.528Z,21.29
2017-03-11T02:18:56.559Z,21.24
2017-03-11T02:19:56.608Z,21.16
2017-03-11T02:20:56.531Z,21.25
2017-03-11T02:21:56.529Z,21.27
2017-03-11T02:22:56.582Z,21.17
2017-03-11T02:23:56.636Z,21.12
2017-03-11T02:24:56.198Z,21.09
2017-03-11T02:25:56.159Z,21.06
2017-03-11T02:26:56.576Z,21.1
2017-03-11T02:27:56.608Z,21.13
2017-03-11T02:28:56.562Z,21.21
2017-03-11T02:29:56.608Z,21.06
2017-03-11T02:30:56.584Z,21.14
2017-03-11T02:31:56.614Z,21.1
2017-03-11T02:32:56.724Z,21.1
2017-03-11T02:33:56.579Z,21.07
2017-03-11T02:34:56.238Z,21.12
2017-03-11T02:35:56.605Z,21.09
2017-03-11T02:36:56.646Z,21.12
2017-03-11T02:37:56.303Z,21.12
2017-03-11T02:38:56.652Z,21.07
2017-03-11T02:39:56.704Z,21.07
2017-03-11T02:40:56.708Z,21.12
2017-03-11T02:41:56.612Z,21.12
2017-03-11T02:42:56.721Z,21.06
2017-03-11T02:43:56.675Z,21.06
2017-03-11T02:44:56.700Z,21.06
2017-03-11T02:45:56.644Z,21.06
2017-03-11T02:46:56.638Z,21.12
2017-03-11T02:47:56.747Z,21.01
2017-03-11T02:48:56.743Z,21.04
2017-03-11T02:49:56.661Z,21.03
2017-03-11T02:50:56.276Z,20.99
2017-03-11T02:51:56.775Z,20.99
2017-03-11T02:52:56.764Z,21.1
2017-03-11T02:53:56.269Z,21.04
2017-03-11T02:54:56.725Z,21.01
2017-03-11T02:55:56.314Z,21.06
2017-03-11T02:56:56.331Z,21.14
2017-03-11T02:57:56.659Z,21.09
2017-03-11T02:58:56.342Z,21.09
2017-03-11T02:59:56.848Z,21.1
2017-03-11T03:00:56.317Z,21.06
2017-03-11T03:01:57.038Z,21.1
2017-03-11T03:02:56.317Z,21.09
2017-03-11T03:03:56.372Z,21.12
2017-03-11T03:04:56.769Z,21.09
2017-03-11T03:05:56.773Z,21.01
2017-03-11T03:06:56.442Z,21.01
2017-03-11T03:07:56.733Z,20.95
2017-03-11T03:08:56.805Z,20.98
2017-03-11T03:09:56.849Z,21.16
2017-03-11T03:10:56.406Z,20.94
2017-03-11T03:11:56.854Z,20.99
2017-03-11T03:12:56.755Z,21.03
2017-03-11T03:13:56.461Z,20.95
2017-03-11T03:14:56.768Z,20.97
2017-03-11T03:15:56.022Z,20.98
2017-03-11T03:16:56.780Z,20.97
2017-03-11T03:17:56.872Z,21.01
2017-03-11T03:18:56.787Z,21.04
2017-03-11T03:19:56.782Z,21.01
2017-03-11T03:20:56.452Z,20.95
2017-03-11T03:21:56.453Z,21.06
2017-03-11T03:22:56.466Z,21.07
2017-03-11T03:23:56.807Z,20.95
2017-03-11T03:24:56.524Z,20.99
2017-03-11T03:25:56.924Z,20.99
2017-03-11T03:26:56.814Z,20.89
2017-03-11T03:27:56.871Z,20.97
2017-03-11T03:28:56.871Z,21.13
2017-03-11T03:29:56.535Z,21.06
2017-03-11T03:30:56.504Z,20.95
2017-03-11T03:31:56.852Z,21.03
2017-03-11T03:32:56.452Z,20.95
2017-03-11T03:33:56.845Z,20.95
2017-03-11T03:34:56.775Z,20.87
2017-03-11T03:35:56.977Z,20.88
2017-03-11T03:36:56.469Z,20.89
2017-03-11T03:37:56.921Z,20.88
2017-03-11T03:38:56.917Z,20.97
2017-03-11T03:39:56.579Z,20.91
2017-03-11T03:40:56.987Z,20.92
2017-03-11T03:41:56.943Z,20.87
2017-03-11T03:42:56.936Z,20.94
2017-03-11T03:43:58.243Z,20.95
2017-03-11T03:44:56.944Z,21.03
2017-03-11T03:45:56.570Z,20.99
2017-03-11T03:46:56.974Z,21.03
2017-03-11T03:47:56.565Z,20.97
2017-03-11T03:48:57.833Z,21.03
2017-03-11T03:49:56.635Z,20.94
2017-03-11T03:50:56.983Z,20.87
2017-03-11T03:51:56.976Z,20.87
2017-03-11T03:52:57.012Z,20.92
2017-03-11T03:53:56.594Z,20.91
2017-03-11T03:54:56.658Z,20.92
2017-03-11T03:55:57.057Z,20.89
2017-03-11T03:56:56.960Z,20.95
2017-03-11T03:57:56.954Z,20.98
2017-03-11T03:58:56.275Z,20.95
2017-03-11T03:59:56.961Z,21.01
2017-03-11T04:00:56.571Z,20.92
2017-03-11T04:01:56.640Z,20.94
2017-03-11T04:02:57.777Z,20.97
2017-03-11T04:03:57.089Z,20.97
2017-03-11T04:04:57.036Z,20.97
2017-03-11T04:05:57.403Z,20.98
2017-03-11T04:06:57.047Z,20.92
2017-03-11T04:07:57.065Z,20.73
2017-03-11T04:08:56.664Z,20.89
2017-03-11T04:09:56.668Z,20.91
2017-03-11T04:10:56.676Z,21.04
2017-03-11T04:11:57.029Z,21.03
2017-03-11T04:12:57.078Z,20.99
2017-03-11T04:13:57.091Z,21.1
2017-03-11T04:14:57.038Z,21.09
2017-03-11T04:15:57.098Z,20.98
2017-03-11T04:16:56.724Z,20.91
2017-03-11T04:17:57.048Z,20.95
2017-03-11T04:18:56.721Z,20.89
2017-03-11T04:19:56.715Z,20.85
2017-03-11T04:20:57.063Z,20.82
2017-03-11T04:21:58.263Z,20.85
2017-03-11T04:22:57.132Z,20.87
2017-03-11T04:23:56.729Z,20.85
2017-03-11T04:24:56.696Z,20.91
2017-03-11T04:25:56.751Z,20.94
2017-03-11T04:26:57.093Z,20.88
2017-03-11T04:27:56.761Z,20.89
2017-03-11T04:28:56.859Z,20.91
2017-03-11T04:29:56.724Z,20.92
2017-03-11T04:30:57.161Z,20.84
2017-03-11T04:31:56.826Z,20.89
2017-03-11T04:32:57.463Z,20.92
2017-03-11T04:33:57.120Z,20.87
2017-03-11T04:34:56.729Z,20.89
2017-03-11T04:35:57.187Z,20.67
2017-03-11T04:36:57.169Z,20.7
2017-03-11T04:37:57.145Z,20.79
2017-03-11T04:38:57.157Z,20.82
2017-03-11T04:39:56.813Z,20.79
2017-03-11T04:40:57.164Z,20.8
2017-03-11T04:41:56.869Z,20.85
2017-03-11T04:42:57.217Z,20.85
2017-03-11T04:43:57.165Z,20.72
2017-03-11T04:44:56.886Z,20.85
2017-03-11T04:45:57.176Z,20.97
2017-03-11T04:46:57.198Z,20.97
2017-03-11T04:47:57.230Z,20.89
2017-03-11T04:48:57.251Z,20.95
2017-03-11T04:49:57.348Z,20.94
2017-03-11T04:50:57.246Z,20.89
2017-03-11T04:51:57.304Z,20.87
2017-03-11T04:52:56.867Z,20.8
2017-03-11T04:53:57.208Z,20.84
2017-03-11T04:54:57.213Z,20.82
2017-03-11T04:55:57.331Z,20.88
2017-03-11T04:56:57.788Z,20.77
2017-03-11T04:57:56.900Z,20.82
2017-03-11T04:58:56.886Z,20.82
2017-03-11T04:59:57.283Z,20.84
2017-03-11T05:00:57.249Z,20.87
2017-03-11T05:01:57.246Z,20.84
2017-03-11T05:02:57.349Z,20.72
2017-03-11T05:03:57.316Z,20.82
2017-03-11T05:04:57.355Z,20.89
2017-03-11T05:05:57.263Z,20.82
2017-03-11T05:06:56.876Z,20.74
2017-03-11T05:07:57.371Z,20.74
2017-03-11T05:08:57.381Z,20.73
2017-03-11T05:09:56.877Z,20.73
2017-03-11T05:10:57.348Z,20.87
2017-03-11T05:11:57.341Z,20.82
2017-03-11T05:12:57.389Z,20.82
2017-03-11T05:14:11.823Z,20.82
2017-03-11T05:14:57.349Z,20.72
2017-03-11T05:15:56.972Z,20.76
2017-03-11T05:16:57.310Z,20.88
2017-03-11T05:17:57.431Z,20.89
2017-03-11T05:18:56.591Z,20.89
2017-03-11T05:19:57.422Z,20.87
2017-03-11T05:20:57.416Z,20.94
2017-03-11T05:21:57.441Z,20.95
2017-03-11T05:22:57.338Z,20.89
2017-03-11T05:23:57.394Z,20.87
2017-03-11T05:24:57.448Z,20.85
2017-03-11T05:25:57.449Z,20.95
2017-03-11T05:26:57.410Z,20.92
2017-03-11T05:27:57.416Z,20.92
2017-03-11T05:28:57.410Z,20.87
2017-03-11T05:29:57.414Z,20.92
2017-03-11T05:30:57.038Z,20.88
2017-03-11T05:31:57.504Z,20.92
2017-03-11T05:32:57.479Z,20.91
2017-03-11T05:33:57.442Z,20.95
2017-03-11T05:34:57.052Z,20.97
2017-03-11T05:35:57.470Z,21.01
2017-03-11T05:36:57.497Z,21.03
2017-03-11T05:37:57.024Z,21.13
2017-03-11T05:38:57.463Z,20.92
2017-03-11T05:39:56.679Z,20.95
2017-03-11T05:40:57.416Z,20.95
2017-03-11T05:41:57.479Z,20.88
2017-03-11T05:42:57.427Z,20.91
2017-03-11T05:44:11.958Z,20.89
2017-03-11T05:44:57.447Z,20.98
2017-03-11T05:45:57.044Z,20.98
2017-03-11T05:46:57.045Z,20.94
2017-03-11T05:47:57.505Z,21.03
2017-03-11T05:48:57.506Z,21.04
2017-03-11T05:49:57.460Z,20.99
2017-03-11T05:50:57.114Z,20.89
2017-03-11T05:51:57.477Z,21.03
2017-03-11T05:52:57.534Z,21.09
2017-03-11T05:53:57.184Z,21.06
2017-03-11T05:54:57.529Z,20.97
2017-03-11T05:55:57.482Z,20.94
2017-03-11T05:56:57.486Z,20.88
2017-03-11T05:57:57.146Z,20.94
2017-03-11T05:58:57.547Z,20.99
2017-03-11T05:59:57.649Z,20.99
2017-03-11T06:00:57.504Z,21.03
2017-03-11T06:01:57.508Z,21.06
2017-03-11T06:02:57.580Z,21.03
2017-03-11T06:03:57.520Z,21.12
2017-03-11T06:04:57.521Z,21.07
2017-03-11T06:05:57.133Z,21.04
2017-03-11T06:06:57.178Z,21.04
2017-03-11T06:07:57.648Z,21.06
2017-03-11T06:08:57.591Z,20.94
2017-03-11T06:09:57.613Z,20.98
2017-03-11T06:10:57.613Z,21.07
2017-03-11T06:11:57.167Z,21.09
2017-03-11T06:12:57.162Z,21.07
2017-03-11T06:13:57.614Z,21.09
2017-03-11T06:14:57.631Z,21.07
2017-03-11T06:15:57.181Z,21.12
2017-03-11T06:16:57.741Z,21.12
2017-03-11T06:17:57.630Z,21.14
2017-03-11T06:18:57.654Z,21.24
2017-03-11T06:19:57.697Z,21.12
2017-03-11T06:20:57.890Z,21.19
2017-03-11T06:21:56.866Z,21.13
2017-03-11T06:22:57.718Z,21.24
2017-03-11T06:23:57.654Z,21.16
2017-03-11T06:24:57.224Z,21.27
2017-03-11T06:25:57.672Z,21.14
2017-03-11T06:26:57.733Z,21.22
2017-03-11T06:27:57.674Z,21.22
2017-03-11T06:28:57.283Z,21.28
2017-03-11T06:29:57.235Z,21.21
2017-03-11T06:30:57.639Z,21.21
2017-03-11T06:31:57.249Z,21.32
2017-03-11T06:32:57.704Z,21.34
2017-03-11T06:33:57.703Z,21.37
2017-03-11T06:34:57.274Z,21.38
2017-03-11T06:35:57.716Z,21.37
2017-03-11T06:36:58.035Z,21.43
2017-03-11T06:37:57.721Z,21.46
2017-03-11T06:38:57.731Z,21.37
2017-03-11T06:39:57.332Z,21.34
2017-03-11T06:40:58.020Z,21.43
2017-03-11T06:41:57.391Z,21.4
2017-03-11T06:42:57.735Z,21.44
2017-03-11T06:43:57.708Z,21.54
2017-03-11T06:44:57.752Z,21.61
2017-03-11T06:45:57.373Z,21.44
2017-03-11T06:46:57.711Z,21.42
2017-03-11T06:47:57.335Z,21.43
2017-03-11T06:48:57.779Z,21.34
2017-03-11T06:49:57.824Z,21.42
2017-03-11T06:50:57.789Z,21.54
2017-03-11T06:51:57.845Z,21.61
2017-03-11T06:52:57.798Z,21.52
2017-03-11T06:53:59.446Z,21.64
2017-03-11T06:54:57.797Z,21.56
2017-03-11T06:55:57.815Z,21.53
2017-03-11T06:56:57.806Z,21.5
2017-03-11T06:57:57.477Z,21.67
2017-03-11T06:58:57.779Z,21.58
2017-03-11T06:59:57.035Z,21.47
2017-03-11T07:00:57.776Z,21.58
2017-03-11T07:01:57.834Z,21.56
2017-03-11T07:02:57.441Z,21.5
2017-03-11T07:03:57.811Z,21.53
2017-03-11T07:04:57.846Z,21.43
2017-03-11T07:05:57.857Z,21.46
2017-03-11T07:06:57.869Z,21.58
2017-03-11T07:07:57.864Z,21.67
2017-03-11T07:08:57.087Z,21.49
2017-03-11T07:09:57.525Z,21.52
2017-03-11T07:10:57.495Z,21.5
2017-03-11T07:11:57.831Z,21.53
2017-03-11T07:12:57.895Z,21.62
2017-03-11T07:13:57.853Z,21.65
2017-03-11T07:14:57.858Z,21.65
2017-03-11T07:15:57.913Z,21.59
2017-03-11T07:16:57.906Z,21.62
2017-03-11T07:17:57.868Z,21.67
2017-03-11T07:18:57.534Z,21.54
2017-03-11T07:19:57.471Z,21.47
2017-03-11T07:20:57.952Z,21.53
2017-03-11T07:21:57.599Z,21.53
2017-03-11T07:22:57.892Z,21.65
2017-03-11T07:23:57.503Z,21.61
2017-03-11T07:24:57.994Z,21.61
2017-03-11T07:25:58.054Z,21.61
2017-03-11T07:26:57.505Z,21.65
2017-03-11T07:27:58.029Z,21.65
2017-03-11T07:28:57.522Z,21.69
2017-03-11T07:29:57.964Z,21.9
2017-03-11T07:30:57.977Z,21.86
2017-03-11T07:31:57.989Z,21.96
2017-03-11T07:32:57.642Z,22.05
2017-03-11T07:33:57.946Z,22.24
2017-03-11T07:34:58.040Z,22.3
2017-03-11T07:35:58.046Z,22.49
2017-03-11T07:36:57.972Z,22.65
2017-03-11T07:37:58.053Z,22.7
2017-03-11T07:38:57.957Z,22.98
2017-03-11T07:39:58.026Z,22.98
2017-03-11T07:40:57.574Z,23.13
2017-03-11T07:41:58.027Z,23.27
2017-03-11T07:42:58.028Z,23.48
2017-03-11T07:44:13.211Z,23.69
2017-03-11T07:44:57.643Z,23.65
2017-03-11T07:45:58.846Z,23.97
2017-03-11T07:46:58.013Z,23.91
2017-03-11T07:47:58.050Z,24.05
2017-03-11T07:48:58.107Z,24.12
2017-03-11T07:49:58.060Z,23.97
2017-03-11T07:50:58.020Z,24.09
2017-03-11T07:51:58.035Z,24.09
2017-03-11T07:52:57.645Z,24.27
2017-03-11T07:53:58.089Z,24.32
2017-03-11T07:54:58.136Z,24.53
2017-03-11T07:55:58.092Z,24.58
2017-03-11T07:56:57.652Z,24.67
2017-03-11T07:57:58.052Z,24.64
2017-03-11T07:58:58.079Z,24.71
2017-03-11T07:59:57.661Z,24.55
2017-03-11T08:00:58.128Z,24.68
2017-03-11T08:01:58.121Z,24.67
2017-03-11T08:02:58.086Z,24.81
2017-03-11T08:03:57.747Z,24.91
2017-03-11T08:04:57.762Z,24.8
2017-03-11T08:05:57.742Z,24.83
2017-03-11T08:06:58.211Z,24.98
2017-03-11T08:07:58.161Z,25.02
2017-03-11T08:08:58.202Z,25
2017-03-11T08:09:59.063Z,24.9
2017-03-11T08:10:57.769Z,24.91
2017-03-11T08:11:57.774Z,25.08
2017-03-11T08:12:57.794Z,25.06
2017-03-11T08:13:57.798Z,25.27
2017-03-11T08:14:58.208Z,26.57
2017-03-11T08:15:57.902Z,28.07
2017-03-11T08:16:58.313Z,28.71
2017-03-11T08:17:58.223Z,29.33
2017-03-11T08:18:58.235Z,29.18
2017-03-11T08:19:57.778Z,29.43
2017-03-11T08:20:58.540Z,29.63
2017-03-11T08:21:57.788Z,29.86
2017-03-11T08:22:57.853Z,29.89
2017-03-11T08:23:58.257Z,30.13
2017-03-11T08:24:57.868Z,29.74
2017-03-11T08:25:58.278Z,29.28
2017-03-11T08:26:58.343Z,29.9
2017-03-11T08:27:58.299Z,30.17
2017-03-11T08:28:58.290Z,30.07
2017-03-11T08:29:57.874Z,30.26
2017-03-11T08:30:58.261Z,30.49
2017-03-11T08:31:58.372Z,30.29
2017-03-11T08:32:58.339Z,30.51
2017-03-11T08:33:58.295Z,30.46
2017-03-11T08:34:58.604Z,30.49
2017-03-11T08:35:58.333Z,30.23
2017-03-11T08:36:58.369Z,29.79
2017-03-11T08:37:58.390Z,29.41
2017-03-11T08:38:57.620Z,29.55
2017-03-11T08:39:58.443Z,29.92
2017-03-11T08:40:58.350Z,29.63
2017-03-11T08:41:58.766Z,30.49
2017-03-11T08:42:58.373Z,30.7
2017-03-11T08:43:58.034Z,30.22
2017-03-11T08:44:58.059Z,30.73
2017-03-11T08:45:58.418Z,30.55
2017-03-11T08:46:58.461Z,30.26
2017-03-11T08:47:58.424Z,29.97
2017-03-11T08:48:58.741Z,30
2017-03-11T08:49:58.042Z,29.53
2017-03-11T08:50:58.113Z,29.27
2017-03-11T08:51:58.457Z,29.04
2017-03-11T08:52:58.467Z,29.24
2017-03-11T08:53:58.530Z,28.89
2017-03-11T08:54:58.109Z,28.7
2017-03-11T08:55:58.497Z,29.18
2017-03-11T08:56:58.168Z,29.53
2017-03-11T08:57:58.193Z,29.67
2017-03-11T08:58:58.626Z,29.14
2017-03-11T08:59:58.531Z,29.36
2017-03-11T09:00:58.550Z,29.92
2017-03-11T09:01:58.217Z,29.95
2017-03-11T09:02:58.168Z,29.92
2017-03-11T09:03:58.624Z,29.98
2017-03-11T09:04:58.629Z,30.19
2017-03-11T09:05:58.665Z,29.65
2017-03-11T09:06:58.657Z,29.06
2017-03-11T09:07:58.667Z,28.8
2017-03-11T09:08:58.682Z,29.28
2017-03-11T09:09:57.843Z,29.49
2017-03-11T09:10:58.646Z,29.58
2017-03-11T09:11:58.306Z,29.43
2017-03-11T09:12:58.670Z,29.76
2017-03-11T09:13:58.748Z,29.89
2017-03-11T09:14:58.743Z,30.26
2017-03-11T09:15:58.759Z,30.24
2017-03-11T09:16:58.323Z,30.15
2017-03-11T09:17:59.091Z,29.89
2017-03-11T09:18:58.988Z,30.07
2017-03-11T09:19:59.092Z,29.9
2017-03-11T09:20:58.413Z,29.41
2017-03-11T09:21:58.762Z,29.19
2017-03-11T09:22:58.781Z,29.24
2017-03-11T09:23:58.785Z,29.23
2017-03-11T09:24:58.836Z,28.73
2017-03-11T09:25:58.846Z,28.7
2017-03-11T09:26:58.481Z,28.96
2017-03-11T09:27:58.871Z,29.26
2017-03-11T09:28:58.830Z,28.67
2017-03-11T09:29:58.834Z,28.56
2017-03-11T09:30:58.851Z,28.36
2017-03-11T09:31:58.863Z,28.11
2017-03-11T09:32:58.967Z,27.51
2017-03-11T09:33:58.928Z,27.14
2017-03-11T09:34:58.624Z,26.85
2017-03-11T09:35:59.067Z,26.37
2017-03-11T09:36:58.589Z,25.83
2017-03-11T09:37:59.002Z,25.75
2017-03-11T09:38:59.104Z,25.82
2017-03-11T09:39:59.128Z,25.55
2017-03-11T09:40:58.601Z,25.55
2017-03-11T09:41:58.597Z,25.4
2017-03-11T09:42:58.550Z,25.2
2017-03-11T09:43:59.042Z,25.2
2017-03-11T09:44:59.007Z,25.21
2017-03-11T09:45:59.230Z,25.15
2017-03-11T09:46:58.592Z,24.83
2017-03-11T09:47:59.038Z,24.88
2017-03-11T09:48:59.124Z,24.68
2017-03-11T09:49:59.109Z,24.57
2017-03-11T09:50:59.053Z,24.35
2017-03-11T09:51:59.060Z,24.32
2017-03-11T09:52:58.288Z,24.45
2017-03-11T09:53:59.027Z,24.28
2017-03-11T09:54:59.043Z,24.27
2017-03-11T09:55:59.100Z,24.32
2017-03-11T09:56:59.048Z,24.28
2017-03-11T09:57:59.052Z,24.22
2017-03-11T09:58:59.069Z,24.08
2017-03-11T09:59:59.126Z,24.05
2017-03-11T10:00:58.792Z,24.18
2017-03-11T10:01:59.131Z,24.03
2017-03-11T10:02:59.139Z,24.27
2017-03-11T10:03:58.809Z,24.05
2017-03-11T10:04:59.116Z,23.87
2017-03-11T10:05:58.724Z,23.76
2017-03-11T10:06:59.189Z,23.83
2017-03-11T10:07:59.171Z,23.76
2017-03-11T10:08:58.783Z,23.85
2017-03-11T10:09:59.192Z,23.8
2017-03-11T10:10:59.240Z,23.83
2017-03-11T10:11:59.231Z,23.85
2017-03-11T10:12:59.163Z,23.95
2017-03-11T10:13:59.257Z,23.94
2017-03-11T10:14:59.167Z,24.02
2017-03-11T10:15:58.801Z,24.05
2017-03-11T10:16:58.865Z,24.1
2017-03-11T10:17:59.303Z,24.16
2017-03-11T10:18:58.855Z,24.18
2017-03-11T10:19:59.255Z,24.16
2017-03-11T10:20:59.225Z,24.06
2017-03-11T10:21:58.836Z,24.22
2017-03-11T10:22:58.925Z,24.25
2017-03-11T10:23:59.233Z,24.18
2017-03-11T10:24:59.334Z,24.31
2017-03-11T10:25:58.903Z,24.35
2017-03-11T10:26:58.857Z,24.32
2017-03-11T10:27:58.936Z,24.22
2017-03-11T10:28:59.359Z,24.3
2017-03-11T10:29:58.925Z,24.47
2017-03-11T10:30:58.982Z,24.5
2017-03-11T10:31:58.883Z,24.31
2017-03-11T10:32:59.331Z,24.42
2017-03-11T10:33:59.341Z,24.4
2017-03-11T10:34:59.351Z,24.35
2017-03-11T10:35:58.610Z,24.34
2017-03-11T10:36:59.309Z,24.37
2017-03-11T10:37:59.365Z,24.4
2017-03-11T10:38:59.371Z,24.42
2017-03-11T10:39:59.381Z,24.34
2017-03-11T10:40:59.408Z,24.4
2017-03-11T10:41:59.348Z,24.34
2017-03-11T10:42:59.401Z,24.25
2017-03-11T10:44:13.882Z,24.25
2017-03-11T10:44:58.969Z,24.27
2017-03-11T10:45:59.367Z,24.08
2017-03-11T10:46:59.520Z,24.03
2017-03-11T10:47:59.433Z,24.08
2017-03-11T10:48:59.453Z,24.16
2017-03-11T10:49:59.492Z,24.24
2017-03-11T10:50:59.447Z,24.13
2017-03-11T10:51:59.055Z,24.2
2017-03-11T10:52:59.497Z,24.13
2017-03-11T10:53:59.024Z,24.16
2017-03-11T10:54:59.488Z,24.18
2017-03-11T10:55:59.533Z,24.2
2017-03-11T10:56:59.093Z,24.25
2017-03-11T10:57:59.451Z,24.22
2017-03-11T10:58:59.502Z,24.18
2017-03-11T10:59:59.457Z,24.18
2017-03-11T11:00:59.482Z,24.16
2017-03-11T11:01:59.522Z,24.09
2017-03-11T11:02:59.580Z,24.21
2017-03-11T11:03:59.506Z,24.22
2017-03-11T11:04:59.483Z,24.13
2017-03-11T11:05:59.588Z,24.13
2017-03-11T11:06:59.498Z,24.15
2017-03-11T11:07:59.807Z,24.13
2017-03-11T11:08:59.560Z,24.27
2017-03-11T11:09:59.115Z,24.1
2017-03-11T11:10:59.134Z,24.1
2017-03-11T11:11:59.529Z,24.1
2017-03-11T11:12:59.580Z,24.09
2017-03-11T11:14:28.545Z,24.16
2017-03-11T11:14:59.595Z,24.2
2017-03-11T11:15:59.604Z,24.24
2017-03-11T11:16:59.227Z,24.3
2017-03-11T11:17:59.166Z,24.12
2017-03-11T11:18:59.623Z,24.06
2017-03-11T11:19:59.570Z,24.18
2017-03-11T11:20:59.592Z,24.21
2017-03-11T11:21:59.191Z,24.03
2017-03-11T11:22:59.596Z,24.21
2017-03-11T11:23:59.249Z,24.13
2017-03-11T11:24:59.258Z,23.98
2017-03-11T11:25:59.702Z,23.98
2017-03-11T11:26:59.275Z,24.08
2017-03-11T11:27:59.626Z,24.08
2017-03-11T11:28:59.673Z,23.76
2017-03-11T11:29:59.630Z,23.91
2017-03-11T11:30:59.651Z,23.95
2017-03-11T11:31:59.647Z,23.91
2017-03-11T11:32:59.699Z,23.98
2017-03-11T11:33:59.266Z,23.98
2017-03-11T11:34:59.692Z,23.94
2017-03-11T11:35:59.767Z,23.94
2017-03-11T11:36:59.789Z,23.87
2017-03-11T11:37:59.780Z,23.93
2017-03-11T11:38:59.288Z,23.79
2017-03-11T11:39:59.740Z,23.78
2017-03-11T11:40:59.743Z,23.87
2017-03-11T11:41:59.797Z,24
2017-03-11T11:42:59.361Z,24.02
2017-03-11T11:43:59.811Z,23.9
2017-03-11T11:44:59.737Z,23.78
2017-03-11T11:45:58.978Z,23.87
2017-03-11T11:46:59.726Z,23.58
2017-03-11T11:47:59.737Z,23.48
2017-03-11T11:48:59.447Z,23.55
2017-03-11T11:49:59.851Z,23.54
2017-03-11T11:50:59.747Z,23.51
2017-03-11T11:51:59.815Z,23.66
2017-03-11T11:52:59.805Z,23.65
2017-03-11T11:53:59.364Z,23.7
2017-03-11T11:54:59.867Z,23.7
2017-03-11T11:55:59.820Z,23.61
2017-03-11T11:56:59.879Z,23.7
2017-03-11T11:57:59.394Z,23.84
2017-03-11T11:58:59.407Z,23.85
2017-03-11T11:59:59.898Z,23.76
2017-03-11T12:00:59.802Z,23.7
2017-03-11T12:01:59.409Z,23.69
2017-03-11T12:02:59.904Z,23.69
2017-03-11T12:03:59.414Z,23.76
2017-03-11T12:04:59.877Z,23.85
2017-03-11T12:05:59.878Z,23.84
2017-03-11T12:06:59.880Z,23.88
2017-03-11T12:07:59.893Z,23.94
2017-03-11T12:08:59.887Z,23.97
2017-03-11T12:09:59.948Z,24.06
2017-03-11T12:10:59.960Z,24.06
2017-03-11T12:11:59.913Z,23.94
2017-03-11T12:12:59.564Z,23.9
2017-03-11T12:14:02.211Z,23.93
2017-03-11T12:14:59.923Z,23.93
2017-03-11T12:15:59.875Z,23.76
2017-03-11T12:16:59.585Z,23.61
2017-03-11T12:17:59.984Z,23.7
2017-03-11T12:18:59.892Z,23.78
2017-03-11T12:19:59.547Z,23.79
2017-03-11T12:20:59.951Z,23.9
2017-03-11T12:21:59.559Z,23.88
2017-03-11T12:22:59.975Z,23.73
2017-03-11T12:23:59.931Z,23.79
2017-03-11T12:24:59.921Z,23.76
2017-03-11T12:25:59.668Z,23.76
2017-03-11T12:26:59.936Z,23.69
2017-03-11T12:27:59.543Z,23.72
2017-03-11T12:28:59.603Z,23.7
2017-03-11T12:29:59.601Z,23.88
2017-03-11T12:30:59.666Z,23.85
2017-03-11T12:32:00.211Z,23.66
2017-03-11T12:32:59.722Z,23.7
2017-03-11T12:33:59.968Z,23.72
2017-03-11T12:34:59.651Z,23.7
2017-03-11T12:36:00.001Z,23.57
2017-03-11T12:37:00.044Z,23.63
2017-03-11T12:37:59.699Z,23.5
2017-03-11T12:39:00.000Z,23.48
2017-03-11T12:40:00.058Z,23.58
2017-03-11T12:40:59.613Z,23.63
2017-03-11T12:42:00.124Z,23.69
2017-03-11T12:42:59.623Z,23.46
2017-03-11T12:44:00.138Z,23.32
2017-03-11T12:44:59.640Z,23.36
2017-03-11T12:46:00.066Z,23.55
2017-03-11T12:47:00.103Z,23.66
2017-03-11T12:48:00.056Z,23.6
2017-03-11T12:49:00.551Z,23.53
2017-03-11T12:50:00.054Z,23.51
2017-03-11T12:50:59.722Z,23.61
2017-03-11T12:52:00.170Z,23.54
2017-03-11T12:53:00.137Z,23.48
2017-03-11T12:54:00.074Z,23.5
2017-03-11T12:55:00.130Z,23.36
2017-03-11T12:56:00.090Z,23.46